Time;durP1;ratioP1;P1;durP2;ratioP2;P2;SDS_P1;SDS_P2;PMS_P1;PMS_P2;Temp;Humidity;BMP_temperature;BMP_pressure;BME280_temperature;BME280_humidity;BME280_pressure;Samples;Min_cycle;Max_cycle;Signal;HPM_P1;HPM_P2
2023/07/15 00:00:14;;;;;;;;;0.75;0.75;;;;;26.39;39.29;100307.94;5021318;28;45399;-46
2023/07/15 00:02:44;;;;;;;;;0.00;0.00;;;;;26.35;39.12;100301.19;5021121;28;45395;-45
2023/07/15 00:05:24;;;;;;;;;0.50;0.50;;;;;26.27;39.91;100306.72;5021165;28;45483;-45
2023/07/15 00:07:51;;;;;;;;;0.75;0.75;;;;;26.22;40.09;100301.88;5021036;28;46959;-45
2023/07/15 00:10:16;;;;;;;;;0.00;0.00;;;;;26.16;40.33;100303.44;5021081;28;45342;-45
2023/07/15 00:12:42;;;;;;;;;0.00;0.00;;;;;26.14;39.87;100297.38;5019868;28;45543;-45
2023/07/15 00:15:11;;;;;;;;;1.25;1.25;;;;;26.14;40.12;100296.50;5020522;28;54896;-44
2023/07/15 00:17:36;;;;;;;;;2.00;1.00;;;;;26.15;40.92;100306.38;5020698;28;46158;-46
2023/07/15 00:20:03;;;;;;;;;7.00;3.50;;;;;26.13;40.12;100295.66;5020746;28;45608;-45
2023/07/15 00:22:29;;;;;;;;;10.00;9.33;;;;;26.11;40.55;100292.28;5021195;28;45331;-46
2023/07/15 00:24:55;;;;;;;;;22.33;21.00;;;;;26.09;41.32;100303.38;5019005;28;56999;-46
2023/07/15 00:27:20;;;;;;;;;27.67;24.33;;;;;26.08;41.26;100306.28;5015889;28;47294;-45
2023/07/15 00:29:45;;;;;;;;;23.33;19.33;;;;;26.08;41.60;100295.41;5012012;28;72416;-48
2023/07/15 00:32:16;;;;;;;;;29.33;24.67;;;;;26.11;41.38;100310.53;5019526;28;68887;-46
2023/07/15 00:34:42;;;;;;;;;25.67;21.67;;;;;26.08;41.31;100311.75;5020731;28;45360;-45
2023/07/15 00:37:07;;;;;;;;;18.67;17.67;;;;;26.06;41.39;100317.38;5019561;28;70667;-47
2023/07/15 00:39:32;;;;;;;;;10.00;10.00;;;;;26.03;41.70;100315.00;5019768;28;68376;-45
2023/07/15 00:42:08;;;;;;;;;14.33;9.33;;;;;25.98;43.32;100322.06;5019785;28;68428;-46
2023/07/15 00:44:33;;;;;;;;;7.67;7.67;;;;;25.86;41.94;100314.34;4984687;28;45614;-47
2023/07/15 00:47:05;;;;;;;;;2.67;2.67;;;;;25.83;42.67;100312.03;5019630;28;64803;-44
2023/07/15 00:49:32;;;;;;;;;4.00;2.67;;;;;25.81;42.50;100318.69;5020224;28;45360;-45
2023/07/15 00:52:09;;;;;;;;;1.50;1.50;;;;;25.80;42.62;100315.13;5019530;28;45358;-49
2023/07/15 00:54:37;;;;;;;;;0.50;0.50;;;;;25.75;43.91;100318.41;5002966;28;45386;-46
2023/07/15 00:57:03;;;;;;;;;0.50;0.50;;;;;25.70;43.82;100322.75;5020326;28;45365;-46
2023/07/15 00:59:29;;;;;;;;;1.00;1.00;;;;;25.61;43.79;100319.25;5019060;28;45278;-45
2023/07/15 01:01:54;;;;;;;;;0.75;0.75;;;;;25.58;43.95;100323.19;5020237;28;45368;-44
2023/07/15 01:04:21;;;;;;;;;0.00;0.00;;;;;25.56;44.92;100322.53;5019559;28;61013;-45
2023/07/15 01:06:47;;;;;;;;;0.25;0.25;;;;;25.53;43.90;100313.91;5020195;28;45372;-45
2023/07/15 01:09:13;;;;;;;;;0.67;0.67;;;;;25.52;43.82;100310.31;5020137;28;45825;-48
2023/07/15 01:11:39;;;;;;;;;0.25;0.25;;;;;25.51;45.02;100314.06;5018936;28;45332;-45
2023/07/15 01:14:05;;;;;;;;;0.00;0.00;;;;;25.49;44.34;100310.72;5019978;28;45460;-44
2023/07/15 01:16:32;;;;;;;;;0.00;0.00;;;;;25.47;44.84;100315.47;5019846;28;46112;-47
2023/07/15 01:18:57;;;;;;;;;0.00;0.00;;;;;25.44;44.72;100315.88;5020062;28;45362;-45
2023/07/15 01:21:22;;;;;;;;;2.00;0.50;;;;;25.43;44.62;100317.75;5020110;28;45513;-44
2023/07/15 01:23:48;;;;;;;;;0.00;0.00;;;;;25.42;45.23;100315.19;5018432;28;54343;-46
2023/07/15 01:26:13;;;;;;;;;0.00;0.00;;;;;25.39;44.86;100316.41;5017079;28;74804;-44
2023/07/15 01:28:39;;;;;;;;;1.25;0.50;;;;;25.35;45.80;100322.44;5018864;28;73608;-45
2023/07/15 01:31:04;;;;;;;;;1.25;1.25;;;;;25.29;45.30;100320.41;5020195;28;45284;-49
2023/07/15 01:33:30;;;;;;;;;1.75;0.25;;;;;25.27;45.00;100312.44;5019691;28;45633;-47
2023/07/15 01:35:55;;;;;;;;;1.00;1.00;;;;;25.23;45.37;100317.38;5019798;28;45342;-47
2023/07/15 01:38:21;;;;;;;;;1.75;0.50;;;;;25.19;45.38;100310.63;5017535;28;73940;-47
2023/07/15 01:40:46;;;;;;;;;0.00;0.00;;;;;25.17;45.89;100320.00;5019130;28;65617;-47
2023/07/15 01:43:11;;;;;;;;;0.75;0.00;;;;;25.12;47.47;100306.94;5019078;28;62138;-48
2023/07/15 01:45:39;;;;;;;;;0.00;0.00;;;;;25.09;47.41;100302.72;5018622;28;72280;-48
2023/07/15 01:48:04;;;;;;;;;0.00;0.00;;;;;25.08;47.12;100300.19;5019325;28;45489;-46
2023/07/15 01:50:30;;;;;;;;;0.75;0.00;;;;;25.04;46.50;100299.69;5019715;28;45412;-45
2023/07/15 01:52:56;;;;;;;;;0.00;0.00;;;;;25.00;46.73;100289.38;5019757;28;45582;-46
2023/07/15 01:55:21;;;;;;;;;0.50;0.00;;;;;24.97;47.99;100287.06;5018574;28;74965;-46
2023/07/15 01:57:46;;;;;;;;;2.00;0.00;;;;;24.92;48.21;100284.88;5019077;28;45317;-45
2023/07/15 02:00:16;;;;;;;;;0.00;0.00;;;;;24.90;48.31;100276.03;5018701;28;67260;-44
2023/07/15 02:02:41;;;;;;;;;1.00;1.00;;;;;24.86;47.77;100275.56;5019051;28;45335;-47
2023/07/15 02:05:07;;;;;;;;;0.00;0.00;;;;;24.82;47.71;100268.78;5019246;28;46129;-44
2023/07/15 02:07:32;;;;;;;;;1.50;1.00;;;;;24.76;48.41;100278.53;5019422;28;45405;-49
2023/07/15 02:09:58;;;;;;;;;0.00;0.00;;;;;24.70;48.71;100262.09;5019569;28;45791;-48
2023/07/15 02:12:23;;;;;;;;;0.00;0.00;;;;;24.67;48.86;100276.06;5018333;28;70510;-47
2023/07/15 02:14:48;;;;;;;;;1.00;1.00;;;;;24.60;50.93;100276.75;5018928;28;58956;-48
2023/07/15 02:17:14;;;;;;;;;0.25;0.25;;;;;24.55;50.38;100268.31;5018254;28;71778;-47
2023/07/15 02:19:39;;;;;;;;;1.00;1.00;;;;;24.55;50.18;100265.59;5019295;28;45284;-47
2023/07/15 02:22:05;;;;;;;;;1.00;1.00;;;;;24.54;50.25;100263.88;5018406;28;67052;-48
2023/07/15 02:24:31;;;;;;;;;1.50;0.00;;;;;24.57;49.60;100270.84;5019001;28;45427;-48
2023/07/15 02:26:56;;;;;;;;;1.00;1.00;;;;;24.55;50.61;100276.47;5019046;28;45465;-44
2023/07/15 02:29:21;;;;;;;;;1.00;1.00;;;;;24.53;49.88;100275.78;5018340;28;68539;-46
2023/07/15 02:31:46;;;;;;;;;0.50;0.50;;;;;24.55;50.95;100267.47;5018379;28;62424;-45
2023/07/15 02:34:13;;;;;;;;;0.00;0.00;;;;;24.58;51.22;100269.81;5018085;28;74642;-46
2023/07/15 02:36:38;;;;;;;;;0.75;0.75;;;;;24.58;51.48;100265.22;5019149;28;45404;-46
2023/07/15 02:39:06;;;;;;;;;0.25;0.25;;;;;24.55;50.84;100265.59;5019409;28;67473;-46
2023/07/15 02:41:32;;;;;;;;;0.00;0.00;;;;;24.52;53.56;100268.69;5022648;28;45617;-46
2023/07/15 02:43:57;;;;;;;;;0.00;0.00;;;;;24.49;51.07;100271.75;5022216;28;46896;-46
2023/07/15 02:46:23;;;;;;;;;1.50;0.50;;;;;24.48;51.77;100280.91;5022279;28;45439;-47
2023/07/15 02:48:48;;;;;;;;;0.50;0.50;;;;;24.51;52.09;100294.16;5022593;28;45397;-47
2023/07/15 02:51:13;;;;;;;;;2.00;0.00;;;;;24.53;51.71;100291.25;5021381;28;68724;-49
2023/07/15 02:53:39;;;;;;;;;2.00;0.00;;;;;24.56;52.08;100286.31;5021590;28;70168;-47
2023/07/15 02:56:05;;;;;;;;;0.50;0.50;;;;;24.60;50.95;100287.63;5022174;28;45408;-49
2023/07/15 02:58:31;;;;;;;;;1.75;1.00;;;;;24.65;51.39;100286.28;5022453;28;45328;-47
2023/07/15 03:00:56;;;;;;;;;0.25;0.25;;;;;24.66;51.57;100282.53;5022372;28;45285;-46
2023/07/15 03:03:21;;;;;;;;;0.50;0.00;;;;;24.67;53.95;100282.34;5021835;28;45376;-48
2023/07/15 03:05:51;;;;;;;;;1.25;1.00;;;;;24.65;52.29;100283.56;5021175;28;68904;-46
2023/07/15 03:08:16;;;;;;;;;0.00;0.00;;;;;24.57;52.65;100276.28;5021315;28;69434;-47
2023/07/15 03:10:45;;;;;;;;;0.25;0.25;;;;;24.51;52.69;100279.69;5022202;28;45430;-49
2023/07/15 03:13:11;;;;;;;;;0.00;0.00;;;;;24.45;52.70;100279.41;5021926;28;47121;-48
2023/07/15 03:15:36;;;;;;;;;1.50;1.00;;;;;24.42;52.82;100281.66;5022027;28;45322;-47
2023/07/15 03:18:03;;;;;;;;;0.75;0.75;;;;;24.37;53.84;100282.19;5021774;28;45369;-53
2023/07/15 03:20:29;;;;;;;;;1.00;0.00;;;;;24.33;53.67;100290.88;5020819;28;45452;-50
2023/07/15 03:22:55;;;;;;;;;0.75;0.75;;;;;24.31;54.05;100279.34;5021778;28;46747;-50
2023/07/15 03:25:20;;;;;;;;;1.50;1.50;;;;;24.24;53.59;100288.19;5021880;28;45371;-50
2023/07/15 03:27:47;;;;;;;;;0.75;0.75;;;;;24.22;53.94;100275.81;5021835;28;45468;-50
2023/07/15 03:30:12;;;;;;;;;0.50;0.25;;;;;24.17;54.55;100273.66;5020570;28;45558;-49
2023/07/15 03:32:39;;;;;;;;;1.00;1.00;;;;;24.14;54.86;100274.00;5019383;28;70184;-49
2023/07/15 03:35:05;;;;;;;;;0.75;0.75;;;;;24.10;54.90;100278.94;5021766;28;45435;-50
2023/07/15 03:37:32;;;;;;;;;0.25;0.25;;;;;24.08;56.93;100283.72;5021737;28;45357;-49
2023/07/15 03:39:57;;;;;;;;;0.25;0.25;;;;;24.08;55.15;100294.56;5021822;28;45277;-50
2023/07/15 03:42:24;;;;;;;;;1.25;1.25;;;;;24.10;56.53;100291.69;5021796;28;46123;-50
2023/07/15 03:44:49;;;;;;;;;2.00;0.00;;;;;24.09;55.35;100300.84;5020147;28;45398;-44
2023/07/15 03:47:15;;;;;;;;;1.00;1.00;;;;;24.06;56.31;100302.03;5020497;28;69381;-45
2023/07/15 03:49:40;;;;;;;;;1.00;1.00;;;;;24.01;56.26;100306.31;5021046;28;45352;-45
2023/07/15 03:52:06;;;;;;;;;1.00;1.00;;;;;23.98;56.84;100306.69;5021345;28;45416;-46
2023/07/15 03:54:31;;;;;;;;;0.25;0.25;;;;;23.93;56.23;100301.78;5018983;28;75566;-46
2023/07/15 03:56:57;;;;;;;;;0.00;0.00;;;;;23.91;56.06;100307.38;5020738;28;60099;-44
2023/07/15 03:59:22;;;;;;;;;3.00;1.75;;;;;23.91;56.11;100304.66;5021314;28;45617;-47
2023/07/15 04:01:47;;;;;;;;;1.00;1.00;;;;;23.93;56.32;100285.47;5020109;28;75248;-46
2023/07/15 04:04:13;;;;;;;;;2.50;1.00;;;;;23.93;56.37;100272.72;5020921;28;45395;-46
2023/07/15 04:06:38;;;;;;;;;1.50;1.50;;;;;23.93;56.10;100264.59;5021373;28;45380;-47
2023/07/15 04:09:05;;;;;;;;;1.00;1.00;;;;;23.93;56.26;100269.19;5019306;28;60974;-45
2023/07/15 04:11:31;;;;;;;;;1.50;1.50;;;;;23.93;56.05;100275.44;5020899;28;46912;-47
2023/07/15 04:13:57;;;;;;;;;3.00;2.00;;;;;23.93;56.40;100280.06;5019879;28;45427;-47
2023/07/15 04:16:22;;;;;;;;;1.25;1.00;;;;;23.95;56.81;100303.28;5020332;28;63168;-49
2023/07/15 04:18:47;;;;;;;;;2.50;1.00;;;;;23.91;59.22;100318.25;5020349;28;60019;-48
2023/07/15 04:21:13;;;;;;;;;1.00;1.00;;;;;23.89;56.98;100350.13;5019933;28;74751;-51
2023/07/15 04:23:38;;;;;;;;;1.00;1.00;;;;;23.88;57.03;100334.00;5019794;28;72751;-46
2023/07/15 04:26:03;;;;;;;;;2.00;1.00;;;;;23.91;56.35;100320.97;5020872;28;45585;-47
2023/07/15 04:28:29;;;;;;;;;0.00;0.00;;;;;23.90;59.26;100307.56;5020998;28;45240;-49
2023/07/15 04:30:54;;;;;;;;;1.50;1.50;;;;;23.86;57.74;100306.19;5019935;28;71268;-48
2023/07/15 04:33:20;;;;;;;;;1.00;1.00;;;;;23.82;57.80;100297.56;5019168;28;45457;-49
2023/07/15 04:35:46;;;;;;;;;1.25;1.00;;;;;23.78;59.14;100296.22;5019564;28;45378;-46
2023/07/15 04:38:11;;;;;;;;;2.00;0.00;;;;;23.76;57.42;100284.66;5019980;28;61574;-48
2023/07/15 04:40:37;;;;;;;;;0.75;0.75;;;;;23.75;58.78;100272.97;5020615;28;46125;-46
2023/07/15 04:43:02;;;;;;;;;1.00;1.00;;;;;23.76;57.59;100268.38;5020610;28;47752;-48
2023/07/15 04:45:29;;;;;;;;;0.50;0.50;;;;;23.76;57.82;100252.94;5020267;28;52685;-47
2023/07/15 04:47:55;;;;;;;;;1.25;1.00;;;;;23.82;57.42;100248.69;5020780;28;45322;-48
2023/07/15 04:50:20;;;;;;;;;1.00;1.00;;;;;23.86;57.30;100252.72;5021011;28;46584;-48
2023/07/15 04:52:45;;;;;;;;;0.25;0.25;;;;;23.88;57.43;100252.53;5020867;28;45378;-46
2023/07/15 04:55:11;;;;;;;;;1.00;1.00;;;;;23.86;58.05;100270.91;5019815;28;55396;-50
2023/07/15 04:57:37;;;;;;;;;2.00;1.00;;;;;23.77;57.76;100284.50;5020554;28;45453;-45
2023/07/15 05:00:04;;;;;;;;;1.25;1.25;;;;;23.70;59.16;100288.06;5020306;28;52184;-49
2023/07/15 05:02:29;;;;;;;;;1.00;0.75;;;;;23.65;58.53;100279.63;5018793;28;45388;-46
2023/07/15 05:04:54;;;;;;;;;1.00;1.00;;;;;23.67;58.50;100274.88;5019963;28;46329;-47
2023/07/15 05:07:20;;;;;;;;;0.00;0.00;;;;;23.69;57.88;100273.66;5019419;28;67314;-50
2023/07/15 05:09:46;;;;;;;;;1.00;1.00;;;;;23.71;58.04;100266.19;5020234;28;45952;-45
2023/07/15 05:12:11;;;;;;;;;0.25;0.25;;;;;23.69;57.65;100275.53;5020015;28;45790;-46
2023/07/15 05:14:37;;;;;;;;;1.25;1.00;;;;;23.70;58.73;100283.50;5019519;28;66921;-47
2023/07/15 05:17:02;;;;;;;;;1.00;1.00;;;;;23.74;58.00;100276.72;5018926;28;69402;-46
2023/07/15 05:19:28;;;;;;;;;1.00;1.00;;;;;23.80;58.01;100277.88;5020079;28;45400;-46
2023/07/15 05:21:53;;;;;;;;;1.00;1.00;;;;;23.79;58.87;100278.88;5018811;28;45432;-45
2023/07/15 05:24:19;;;;;;;;;0.25;0.00;;;;;23.76;58.21;100279.25;5020212;28;45731;-45
2023/07/15 05:26:44;;;;;;;;;1.00;1.00;;;;;23.79;57.94;100281.59;5019943;28;45460;-46
2023/07/15 05:29:09;;;;;;;;;1.00;1.00;;;;;23.84;57.75;100275.66;5018934;28;72571;-46
2023/07/15 05:31:35;;;;;;;;;3.00;1.50;;;;;23.86;58.03;100279.88;5019576;28;45462;-46
2023/07/15 05:34:00;;;;;;;;;0.75;0.00;;;;;23.87;58.17;100289.72;5020108;28;45363;-48
2023/07/15 05:36:25;;;;;;;;;2.00;2.00;;;;;23.90;57.96;100307.56;5019769;28;45357;-45
2023/07/15 05:38:51;;;;;;;;;0.75;0.75;;;;;23.89;57.41;100284.94;5018700;28;73641;-49
2023/07/15 05:41:16;;;;;;;;;4.50;2.00;;;;;23.88;56.77;100304.13;5019285;28;58765;-46
2023/07/15 05:43:42;;;;;;;;;1.75;1.75;;;;;23.86;56.47;100315.19;5019870;28;45387;-46
2023/07/15 05:46:07;;;;;;;;;3.25;2.00;;;;;23.87;55.71;100316.88;5018660;28;68721;-47
2023/07/15 05:48:32;;;;;;;;;1.33;1.00;;;;;23.81;55.68;100339.28;5018601;28;73593;-46
2023/07/15 05:50:58;;;;;;;;;2.00;1.00;;;;;23.76;55.47;100328.09;5018849;28;66963;-48
2023/07/15 05:53:23;;;;;;;;;1.00;1.00;;;;;23.72;55.55;100327.59;5019183;28;63786;-51
2023/07/15 05:55:49;;;;;;;;;1.25;1.25;;;;;23.74;55.19;100338.28;5020055;28;45581;-49
2023/07/15 05:58:14;;;;;;;;;1.00;1.00;;;;;23.73;54.54;100342.03;5019344;28;46627;-49
2023/07/15 06:00:40;;;;;;;;;2.33;1.00;;;;;23.70;54.61;100348.66;5018949;28;61190;-47
2023/07/15 06:03:06;;;;;;;;;2.25;1.25;;;;;23.66;54.38;100351.88;5019263;28;45440;-46
2023/07/15 06:05:31;;;;;;;;;2.00;2.00;;;;;23.60;54.68;100348.84;5019285;28;45320;-46
2023/07/15 06:07:56;;;;;;;;;1.00;1.00;;;;;23.62;54.49;100348.66;5019284;28;45434;-47
2023/07/15 06:10:22;;;;;;;;;1.00;1.00;;;;;23.62;54.10;100344.09;5018476;28;73326;-45
2023/07/15 06:12:47;;;;;;;;;2.25;2.00;;;;;23.62;54.18;100354.09;5018738;28;45341;-45
2023/07/15 06:15:12;;;;;;;;;1.00;1.00;;;;;23.60;53.72;100350.72;5021967;28;69555;-47
2023/07/15 06:17:38;;;;;;;;;1.75;0.75;;;;;23.62;53.84;100352.25;5021628;28;66607;-47
2023/07/15 06:20:05;;;;;;;;;1.33;1.33;;;;;23.64;53.57;100368.34;5022511;28;45538;-45
2023/07/15 06:22:30;;;;;;;;;2.75;1.00;;;;;23.64;53.25;100381.09;5022745;28;45451;-49
2023/07/15 06:24:55;;;;;;;;;1.00;1.00;;;;;23.58;53.22;100375.31;5020378;28;69074;-48
2023/07/15 06:27:21;;;;;;;;;2.50;1.00;;;;;23.56;53.02;100362.94;5021585;28;66420;-46
2023/07/15 06:29:48;;;;;;;;;2.25;1.00;;;;;23.54;53.18;100368.53;5022488;28;45400;-48
2023/07/15 06:32:14;;;;;;;;;3.00;2.00;;;;;23.55;53.07;100372.09;5022390;28;45341;-46
2023/07/15 06:34:39;;;;;;;;;3.00;1.00;;;;;23.57;52.76;100370.91;5022443;28;45267;-47
2023/07/15 06:37:04;;;;;;;;;1.33;1.00;;;;;23.62;52.65;100373.97;5022347;28;45516;-46
2023/07/15 06:39:30;;;;;;;;;1.25;1.25;;;;;23.66;52.95;100387.19;5022523;28;45304;-45
2023/07/15 06:41:55;;;;;;;;;1.67;1.67;;;;;23.67;52.71;100387.00;5021826;28;59208;-45
2023/07/15 06:44:20;;;;;;;;;3.00;1.25;;;;;23.75;52.55;100387.00;5021511;28;67185;-46
2023/07/15 06:46:46;;;;;;;;;1.75;1.75;;;;;23.79;52.34;100399.19;5021994;28;46585;-46
2023/07/15 06:49:11;;;;;;;;;2.00;2.00;;;;;23.85;52.45;100388.66;5022185;28;45359;-45
2023/07/15 06:51:37;;;;;;;;;2.00;2.00;;;;;23.84;51.92;100390.53;5022266;28;45557;-46
2023/07/15 06:54:02;;;;;;;;;2.50;2.50;;;;;23.80;51.51;100394.59;5022273;28;45557;-45
2023/07/15 06:56:28;;;;;;;;;2.00;2.00;;;;;23.74;52.23;100384.44;5021997;28;46317;-46
2023/07/15 06:58:53;;;;;;;;;4.33;3.33;;;;;23.70;51.92;100402.09;5022384;28;45410;-48
2023/07/15 07:01:19;;;;;;;;;1.00;1.00;;;;;23.62;52.08;100395.69;5021314;28;61826;-48
2023/07/15 07:03:47;;;;;;;;;2.00;0.67;;;;;23.59;54.15;100397.88;5021880;28;45546;-49
2023/07/15 07:06:12;;;;;;;;;1.33;1.33;;;;;23.60;54.35;100394.97;5021909;28;46179;-46
2023/07/15 07:08:38;;;;;;;;;1.00;1.00;;;;;23.58;53.69;100404.31;5021925;28;45362;-47
2023/07/15 07:11:03;;;;;;;;;1.25;1.25;;;;;23.38;54.57;100403.84;5020573;28;45795;-49
2023/07/15 07:13:28;;;;;;;;;1.00;1.00;;;;;23.31;54.15;100400.09;5021008;28;68652;-49
2023/07/15 07:15:58;;;;;;;;;3.00;1.00;;;;;23.28;54.22;100399.44;5021717;28;45567;-45
2023/07/15 07:18:26;;;;;;;;;1.00;1.00;;;;;23.35;53.90;100391.47;5021703;28;45407;-45
2023/07/15 07:20:59;;;;;;;;;1.00;1.00;;;;;23.39;53.72;100400.13;5021881;28;45286;-45
2023/07/15 07:23:24;;;;;;;;;2.50;1.50;;;;;23.63;54.30;100399.22;5021593;28;45415;-44
2023/07/15 07:25:50;;;;;;;;;2.00;1.00;;;;;23.82;53.54;100392.59;5020660;28;45340;-45
2023/07/15 07:28:16;;;;;;;;;2.00;1.00;;;;;23.81;53.24;100398.19;5021070;28;45490;-46
2023/07/15 07:30:41;;;;;;;;;0.50;0.25;;;;;23.71;53.52;100404.63;5021680;28;45344;-47
2023/07/15 07:33:06;;;;;;;;;0.50;0.50;;;;;23.61;53.34;100407.53;5021177;28;45337;-48
2023/07/15 07:35:32;;;;;;;;;1.00;1.00;;;;;23.52;53.39;100413.13;5020865;28;60596;-46
2023/07/15 07:37:57;;;;;;;;;2.75;1.00;;;;;23.47;53.86;100419.09;5020451;28;71320;-46
2023/07/15 07:40:22;;;;;;;;;1.25;1.00;;;;;23.49;53.94;100427.91;5020677;28;60285;-44
2023/07/15 07:42:48;;;;;;;;;0.00;0.00;;;;;23.47;54.49;100427.22;4999433;28;70570;-46
2023/07/15 07:45:14;;;;;;;;;1.00;1.00;;;;;23.50;53.85;100435.03;5009088;28;73550;-45
2023/07/15 07:47:40;;;;;;;;;2.25;1.00;;;;;23.45;54.25;100423.84;5021156;28;45229;-45
2023/07/15 07:50:06;;;;;;;;;1.00;1.00;;;;;23.49;53.79;100417.03;5021329;28;45361;-44
2023/07/15 07:52:31;;;;;;;;;1.00;1.00;;;;;23.59;53.46;100428.56;5021335;28;45559;-45
2023/07/15 07:54:57;;;;;;;;;3.00;1.25;;;;;23.61;53.12;100426.53;5019828;28;66469;-47
2023/07/15 07:57:22;;;;;;;;;0.00;0.00;;;;;23.54;53.56;100421.97;5021103;28;45506;-44
2023/07/15 07:59:47;;;;;;;;;1.50;1.00;;;;;23.51;53.39;100422.31;5019248;28;57439;-45
2023/07/15 08:02:13;;;;;;;;;1.67;1.00;;;;;23.62;53.76;100424.66;5020538;28;57372;-46
2023/07/15 08:04:38;;;;;;;;;1.00;1.00;;;;;23.74;53.29;100425.16;5021064;28;46419;-47
2023/07/15 08:07:03;;;;;;;;;1.00;1.00;;;;;23.78;53.03;100429.25;5019916;28;69487;-44
2023/07/15 08:09:29;;;;;;;;;2.75;0.50;;;;;23.82;52.79;100446.88;5019930;28;65082;-45
2023/07/15 08:11:54;;;;;;;;;1.00;1.00;;;;;23.81;53.00;100434.31;5020920;28;45431;-48
2023/07/15 08:14:19;;;;;;;;;4.00;1.00;;;;;23.80;53.16;100432.63;5019953;28;71298;-45
2023/07/15 08:16:45;;;;;;;;;2.50;2.50;;;;;23.89;53.30;100439.72;5019683;28;71059;-46
2023/07/15 08:19:11;;;;;;;;;1.00;1.00;;;;;23.90;52.76;100435.19;5020833;28;45410;-44
2023/07/15 08:21:36;;;;;;;;;2.25;1.00;;;;;23.83;53.30;100453.16;5019636;28;45340;-46
2023/07/15 08:24:02;;;;;;;;;1.00;0.75;;;;;23.72;52.21;100441.63;5020422;28;46998;-47
2023/07/15 08:26:27;;;;;;;;;3.00;1.00;;;;;23.72;52.57;100438.91;5020656;28;45463;-46
2023/07/15 08:28:55;;;;;;;;;1.00;1.00;;;;;23.76;51.90;100440.25;5020549;28;45922;-46
2023/07/15 08:31:20;;;;;;;;;2.00;0.75;;;;;23.77;51.63;100451.97;5019132;28;45365;-47
2023/07/15 08:33:46;;;;;;;;;1.00;1.00;;;;;23.71;51.68;100448.06;5021126;28;45467;-52
2023/07/15 08:36:11;;;;;;;;;1.00;1.00;;;;;23.75;51.65;100456.72;5020453;28;45297;-45
2023/07/15 08:38:36;;;;;;;;;2.00;1.00;;;;;24.07;51.20;100458.56;5018727;28;64045;-45
2023/07/15 08:41:02;;;;;;;;;1.00;1.00;;;;;24.57;50.51;100453.78;5019519;28;61104;-45
2023/07/15 08:43:28;;;;;;;;;3.00;1.67;;;;;24.77;49.81;100454.25;5020082;28;45987;-47
2023/07/15 08:45:58;;;;;;;;;4.00;2.00;;;;;24.64;49.45;100439.53;5020193;28;45333;-46
2023/07/15 08:48:24;;;;;;;;;2.00;2.00;;;;;24.58;49.35;100444.63;5020443;28;45441;-46
2023/07/15 08:50:49;;;;;;;;;4.25;1.00;;;;;24.52;49.71;100441.78;5020071;28;55177;-45
2023/07/15 08:53:26;;;;;;;;;0.00;0.00;;;;;24.45;49.31;100447.06;5019176;28;46039;-46
2023/07/15 08:55:55;;;;;;;;;2.00;0.75;;;;;24.40;49.56;100444.03;5018963;28;45577;-47
2023/07/15 08:58:21;;;;;;;;;3.00;2.00;;;;;24.32;49.98;100455.78;5019852;28;45342;-45
2023/07/15 09:00:47;;;;;;;;;0.67;0.67;;;;;24.33;50.38;100438.47;5019862;28;45380;-45
2023/07/15 09:03:12;;;;;;;;;1.00;1.00;;;;;24.44;50.08;100450.81;5019873;28;46056;-46
2023/07/15 09:05:38;;;;;;;;;1.25;1.25;;;;;24.55;49.72;100458.56;5017920;28;68016;-46
2023/07/15 09:08:10;;;;;;;;;2.00;1.00;;;;;24.58;49.91;100444.63;5019187;28;66524;-46
2023/07/15 09:10:35;;;;;;;;;1.50;1.00;;;;;24.57;49.38;100450.25;5020019;28;45425;-45
2023/07/15 09:13:01;;;;;;;;;3.00;1.00;;;;;24.55;49.54;100457.75;5019295;28;65451;-48
2023/07/15 09:15:26;;;;;;;;;1.75;1.75;;;;;24.54;49.83;100454.16;5019139;28;65846;-48
2023/07/15 09:17:56;;;;;;;;;2.00;1.00;;;;;24.54;49.93;100442.44;5018595;28;45945;-50
2023/07/15 09:20:23;;;;;;;;;1.50;1.50;;;;;24.53;49.74;100455.19;5019957;28;45443;-47
2023/07/15 09:23:01;;;;;;;;;1.25;1.25;;;;;24.45;50.23;100455.22;5019659;28;46303;-47
2023/07/15 09:25:27;;;;;;;;;2.00;1.00;;;;;24.42;49.89;100461.03;5018214;28;45385;-49
2023/07/15 09:27:53;;;;;;;;;1.00;1.00;;;;;24.43;50.00;100459.97;5019768;28;45325;-46
2023/07/15 09:30:19;;;;;;;;;1.00;1.00;;;;;24.49;49.88;100462.00;5019871;28;45464;-48
2023/07/15 09:32:45;;;;;;;;;2.75;1.25;;;;;24.60;49.19;100458.03;5019561;28;46254;-46
2023/07/15 09:35:11;;;;;;;;;2.00;1.00;;;;;25.44;48.39;100446.53;5019710;28;45343;-46
2023/07/15 09:37:37;;;;;;;;;2.50;2.50;;;;;26.53;47.34;100453.41;5019650;28;45417;-49
2023/07/15 09:40:07;;;;;;;;;2.25;1.00;;;;;26.68;45.21;100456.13;5019845;28;45465;-45
2023/07/15 09:42:52;;;;;;;;;2.75;2.00;;;;;27.56;45.45;100445.97;5001891;28;47177;-47
2023/07/15 09:45:34;;;;;;;;;3.50;1.00;;;;;29.30;42.33;100440.53;5019629;28;45414;-47
2023/07/15 09:48:14;;;;;;;;;1.00;1.00;;;;;31.22;37.50;100443.22;5020357;28;45605;-47
2023/07/15 09:50:40;;;;;;;;;2.25;1.50;;;;;32.89;36.99;100437.94;5023230;28;45539;-45
2023/07/15 09:53:06;;;;;;;;;1.25;1.25;;;;;32.97;35.33;100446.72;5023103;28;45439;-48
2023/07/15 09:55:33;;;;;;;;;2.00;0.75;;;;;32.97;35.50;100438.47;5023292;28;45278;-45
2023/07/15 09:58:24;;;;;;;;;4.75;2.00;;;;;33.78;33.09;100440.78;5021917;28;45434;-47
2023/07/15 10:01:00;;;;;;;;;2.50;1.00;;;;;33.12;33.82;100445.44;5023439;28;45435;-45
2023/07/15 10:03:49;;;;;;;;;1.50;1.50;;;;;32.73;34.22;100440.28;5022905;28;46287;-47
2023/07/15 10:06:15;;;;;;;;;3.00;1.00;;;;;33.04;32.86;100435.59;5022831;28;45344;-46
2023/07/15 10:08:40;;;;;;;;;1.50;1.50;;;;;32.66;32.46;100456.03;5022529;28;59710;-47
2023/07/15 10:11:07;;;;;;;;;1.00;1.00;;;;;33.35;31.17;100449.34;5021963;28;69832;-46
2023/07/15 10:13:32;;;;;;;;;2.50;1.50;;;;;34.90;30.89;100461.97;5020594;28;73400;-46
2023/07/15 10:15:59;;;;;;;;;2.00;1.50;;;;;35.48;28.03;100448.94;5022587;28;45344;-49
2023/07/15 10:18:29;;;;;;;;;2.00;0.00;;;;;34.58;29.58;100454.16;5023000;28;45451;-48
2023/07/15 10:21:01;;;;;;;;;0.50;0.50;;;;;33.89;30.91;100446.56;5023032;28;45352;-50
2023/07/15 10:23:29;;;;;;;;;0.00;0.00;;;;;33.19;29.89;100424.13;5021342;28;45381;-49
2023/07/15 10:26:02;;;;;;;;;0.50;0.00;;;;;32.51;31.30;100400.53;5022649;28;45521;-47
2023/07/15 10:28:41;;;;;;;;;0.50;0.50;;;;;31.81;31.70;100366.84;5023056;28;45430;-48
2023/07/15 10:31:08;;;;;;;;;1.00;1.00;;;;;31.13;31.85;100377.59;5021420;28;45420;-50
2023/07/15 10:33:35;;;;;;;;;1.50;1.50;;;;;30.96;33.25;100399.22;5022315;28;46997;-46
2023/07/15 10:36:03;;;;;;;;;1.00;1.00;;;;;31.17;32.67;100399.94;5022409;28;45440;-47
2023/07/15 10:38:31;;;;;;;;;0.50;0.50;;;;;31.12;33.42;100403.38;5022665;28;45318;-45
2023/07/15 10:41:05;;;;;;;;;0.50;0.50;;;;;31.55;32.28;100412.75;5022626;28;45422;-47
2023/07/15 10:43:33;;;;;;;;;0.50;0.50;;;;;31.51;31.45;100408.75;5022137;28;45337;-47
2023/07/15 10:46:02;;;;;;;;;0.75;0.50;;;;;30.98;32.43;100419.06;5022364;28;45379;-49
2023/07/15 10:48:27;;;;;;;;;0.00;0.00;;;;;30.32;33.22;100423.78;5022272;28;45451;-45
2023/07/15 10:50:54;;;;;;;;;1.50;1.50;;;;;30.23;33.87;100413.28;5021395;28;66906;-47
2023/07/15 10:53:26;;;;;;;;;1.25;1.00;;;;;30.49;34.05;100410.47;5022312;28;46204;-45
2023/07/15 10:56:09;;;;;;;;;0.25;0.25;;;;;30.56;33.83;100412.31;5022577;28;45278;-48
2023/07/15 10:58:35;;;;;;;;;0.00;0.00;;;;;30.22;33.27;100396.00;5004617;28;45368;-47
2023/07/15 11:01:07;;;;;;;;;1.00;1.00;;;;;29.93;34.38;100405.56;5019816;28;45486;-46
2023/07/15 11:03:41;;;;;;;;;0.75;0.75;;;;;29.87;33.95;100407.25;5012292;28;46123;-48
2023/07/15 11:06:07;;;;;;;;;1.00;1.00;;;;;29.96;34.04;100405.13;5021861;28;45462;-46
2023/07/15 11:08:32;;;;;;;;;0.00;0.00;;;;;30.18;34.20;100403.81;5021302;28;63917;-46
2023/07/15 11:11:02;;;;;;;;;1.25;1.25;;;;;30.33;33.31;100410.91;5019627;28;45279;-46
2023/07/15 11:13:29;;;;;;;;;3.00;0.00;;;;;30.71;32.25;100414.78;5021580;28;46052;-46
2023/07/15 11:15:56;;;;;;;;;2.25;2.25;;;;;30.84;32.90;100411.97;5021810;28;45296;-46
2023/07/15 11:18:23;;;;;;;;;1.00;1.00;;;;;30.82;32.38;100401.22;5020654;28;45564;-47
2023/07/15 11:20:51;;;;;;;;;0.00;0.00;;;;;30.84;32.79;100396.31;5021803;28;45416;-48